Time;durP1;ratioP1;P1;durP2;ratioP2;P2;SDS_P1;SDS_P2;PMS_P1;PMS_P2;Temp;Humidity;BMP_temperature;BMP_pressure;BME280_temperature;BME280_humidity;BME280_pressure;Samples;Min_cycle;Max_cycle;Signal;HPM_P1;HPM_P2
2022/11/01 00:09:58;;;;;;;1999.90;999.90;;;16.20;99.90;;;;;;6638304;89;20196;-80
2022/11/01 00:19:58;;;;;;;1999.90;999.90;;;16.20;99.90;;;;;;6637560;89;20193;-80
2022/11/01 00:29:59;;;;;;;1999.90;999.90;;;16.20;99.90;;;;;;6637550;89;20266;-81
2022/11/01 00:39:59;;;;;;;1999.90;999.90;;;16.10;99.90;;;;;;6635519;89;20219;-80
2022/11/01 00:50:00;;;;;;;1999.90;999.90;;;16.10;99.90;;;;;;6637798;89;20300;-81
2022/11/01 01:00:01;;;;;;;1999.90;999.90;;;16.10;99.90;;;;;;6638907;89;20189;-80
2022/11/01 01:10:03;;;;;;;1999.90;999.90;;;16.10;99.90;;;;;;6639768;89;20212;-80
2022/11/01 01:20:06;;;;;;;1999.90;999.90;;;16.20;99.90;;;;;;6639964;89;20738;-80
2022/11/01 01:30:07;;;;;;;1999.90;999.90;;;16.10;99.90;;;;;;6639204;89;20659;-81
2022/11/01 01:40:08;;;;;;;1999.90;999.90;;;16.10;99.90;;;;;;6640051;89;20219;-80
2022/11/01 01:50:24;;;;;;;1999.90;999.90;;;16.10;99.90;;;;;;6641046;89;20196;-80
2022/11/01 02:00:25;;;;;;;1999.90;999.90;;;16.10;99.90;;;;;;6669729;78;20208;-77
2022/11/01 02:10:28;;;;;;;1999.90;999.90;;;16.20;99.90;;;;;;6666150;89;20384;-76
2022/11/01 02:20:49;;;;;;;1999.90;999.90;;;16.10;99.90;;;;;;6664134;89;20192;-79
2022/11/01 02:31:27;;;;;;;1999.90;999.90;;;16.10;99.90;;;;;;6687411;89;20231;-78
2022/11/01 02:42:13;;;;;;;1999.90;999.90;;;16.50;99.90;;;;;;6663605;89;20254;-78
2022/11/01 02:52:18;;;;;;;1999.90;999.90;;;16.80;99.90;;;;;;6658337;89;20200;-78
2022/11/01 03:02:38;;;;;;;1999.90;999.90;;;17.10;99.90;;;;;;6663273;89;20324;-78
2022/11/01 03:12:49;;;;;;;1999.90;999.90;;;17.10;99.90;;;;;;6672807;89;20242;-78
2022/11/01 03:22:57;;;;;;;1999.90;999.90;;;17.20;99.90;;;;;;6693248;88;20254;-78
2022/11/01 03:32:57;;;;;;;1999.90;999.90;;;17.10;99.90;;;;;;6653074;89;20216;-78
2022/11/01 03:43:02;;;;;;;1999.90;999.90;;;17.00;99.90;;;;;;6666119;89;20196;-78
2022/11/01 03:53:03;;;;;;;1999.90;999.90;;;17.00;99.90;;;;;;6668295;89;20223;-78
2022/11/01 04:03:04;;;;;;;1999.90;999.90;;;17.00;99.90;;;;;;6654297;88;20229;-78
2022/11/01 04:13:04;;;;;;;1999.90;999.90;;;17.10;99.90;;;;;;6653987;89;20554;-78
2022/11/01 04:23:05;;;;;;;1999.90;999.90;;;17.20;99.90;;;;;;6660243;89;20230;-78
2022/11/01 04:33:06;;;;;;;1999.90;999.90;;;17.50;99.90;;;;;;6661626;89;20208;-78
2022/11/01 04:43:08;;;;;;;1999.90;999.90;;;17.50;99.90;;;;;;6681850;89;20194;-77
2022/11/01 04:53:09;;;;;;;1999.90;999.90;;;17.50;99.90;;;;;;6667683;89;20199;-76
2022/11/01 05:03:11;;;;;;;1999.90;999.90;;;17.50;99.90;;;;;;6666453;88;20343;-76
2022/11/01 05:13:12;;;;;;;1999.90;999.90;;;17.60;99.90;;;;;;6654587;89;20217;-76
2022/11/01 05:23:12;;;;;;;1999.90;999.90;;;17.50;99.90;;;;;;6660112;89;20275;-77
2022/11/01 05:33:13;;;;;;;1999.90;999.90;;;17.50;99.90;;;;;;6655279;89;20323;-77
2022/11/01 05:43:14;;;;;;;1999.90;999.90;;;17.40;99.90;;;;;;6650109;89;20183;-77
2022/11/01 05:53:14;;;;;;;1999.90;999.90;;;17.30;99.90;;;;;;6701212;88;20216;-77
2022/11/01 06:03:15;;;;;;;1999.90;999.90;;;17.20;99.90;;;;;;6736687;88;20304;-77
2022/11/01 06:13:16;;;;;;;1999.90;999.90;;;17.20;99.90;;;;;;6669251;88;20202;-77
2022/11/01 06:23:16;;;;;;;1999.90;999.90;;;17.10;99.90;;;;;;6667663;89;20732;-77
2022/11/01 06:33:18;;;;;;;1999.90;999.90;;;17.00;99.90;;;;;;6666650;89;20325;-77
2022/11/01 06:43:18;;;;;;;1999.90;999.90;;;17.00;99.90;;;;;;6680852;89;20237;-77
2022/11/01 06:53:18;;;;;;;1999.90;999.90;;;17.00;99.90;;;;;;6653553;88;20713;-77
2022/11/01 07:03:19;;;;;;;1999.90;999.90;;;17.00;99.90;;;;;;6660262;89;20659;-76
2022/11/01 07:13:20;;;;;;;1999.90;999.90;;;16.80;99.90;;;;;;6656902;89;20192;-76
2022/11/01 07:23:20;;;;;;;1999.90;999.90;;;16.90;99.90;;;;;;6664484;89;20842;-77
2022/11/01 07:33:21;;;;;;;1999.90;999.90;;;16.70;99.90;;;;;;6652342;89;20532;-78
2022/11/01 07:43:22;;;;;;;1999.90;999.90;;;16.50;99.90;;;;;;6656584;89;20176;-78
2022/11/01 07:53:23;;;;;;;1999.90;999.90;;;16.40;99.90;;;;;;6661652;88;20256;-78
2022/11/01 08:03:23;;;;;;;1999.90;999.90;;;16.00;99.90;;;;;;6660231;89;20207;-77
2022/11/01 08:13:24;;;;;;;1999.90;999.90;;;15.60;99.90;;;;;;6673532;88;20286;-77
2022/11/01 08:23:24;;;;;;;1999.90;999.90;;;16.00;99.90;;;;;;6687237;88;20351;-78
2022/11/01 08:33:25;;;;;;;1999.90;999.90;;;16.40;99.90;;;;;;6674761;88;20212;-77
2022/11/01 08:43:25;;;;;;;1999.90;999.90;;;16.90;99.90;;;;;;6667753;88;20210;-78
2022/11/01 08:53:26;;;;;;;1999.90;999.90;;;17.30;99.90;;;;;;6669665;88;20216;-77
2022/11/01 09:03:26;;;;;;;1999.90;999.90;;;17.70;99.90;;;;;;6661015;88;20210;-78
2022/11/01 09:13:27;;;;;;;1999.90;999.90;;;17.90;99.90;;;;;;6662664;88;20260;-78
2022/11/01 09:23:28;;;;;;;1999.90;999.90;;;17.90;99.90;;;;;;6667977;89;20209;-78
2022/11/01 09:33:29;;;;;;;1999.90;999.90;;;18.50;99.90;;;;;;6673146;88;20204;-75
2022/11/01 09:43:34;;;;;;;1999.90;999.90;;;18.40;99.90;;;;;;6674846;88;20214;-77
2022/11/01 09:53:35;;;;;;;1999.90;999.90;;;18.40;99.90;;;;;;6671715;88;20625;-77
2022/11/01 10:03:48;;;;;;;1999.90;999.90;;;18.30;99.90;;;;;;6666504;89;20203;-77
2022/11/01 10:14:09;;;;;;;1999.90;999.90;;;18.40;99.90;;;;;;6667666;89;20209;-77
2022/11/01 10:24:19;;;;;;;1999.90;999.90;;;18.50;99.90;;;;;;6668232;89;20192;-77
2022/11/01 10:34:34;;;;;;;1999.90;999.90;;;19.20;99.90;;;;;;6667874;89;20206;-76
2022/11/01 10:44:58;;;;;;;1999.90;999.90;;;19.80;99.90;;;;;;6674817;89;20172;-77
2022/11/01 10:55:01;;;;;;;1999.90;999.90;;;19.90;99.30;;;;;;6667594;89;20205;-76
2022/11/01 11:05:01;;;;;;;1999.90;999.90;;;19.40;99.90;;;;;;6669878;88;20235;-77
2022/11/01 11:15:14;;;;;;;1999.90;999.90;;;19.50;99.90;;;;;;6663160;88;20180;-77
2022/11/01 11:25:18;;;;;;;1999.90;999.90;;;20.10;99.00;;;;;;6668648;88;20177;-78
2022/11/01 11:35:20;;;;;;;1999.90;999.90;;;19.60;99.30;;;;;;6675609;88;20916;-78
2022/11/01 11:45:28;;;;;;;1999.90;999.90;;;20.80;98.20;;;;;;6675634;88;20259;-78
2022/11/01 11:55:40;;;;;;;1999.90;999.90;;;21.40;97.60;;;;;;6668144;88;20300;-78
2022/11/01 12:05:54;;;;;;;1999.90;999.90;;;20.70;97.40;;;;;;6672037;89;20211;-78
2022/11/01 12:16:15;;;;;;;1999.90;999.90;;;20.40;98.10;;;;;;6671168;88;20602;-77
2022/11/01 12:26:19;;;;;;;1999.90;999.90;;;21.40;96.60;;;;;;6667304;88;20621;-76
2022/11/01 12:36:27;;;;;;;1999.90;999.90;;;20.80;97.00;;;;;;6665085;89;20222;-77
2022/11/01 12:46:41;;;;;;;1999.90;999.90;;;21.90;96.10;;;;;;6658909;88;20195;-76
2022/11/01 12:56:42;;;;;;;;;;;22.40;96.50;;;;;;6665612;88;20255;-76
2022/11/01 13:06:58;;;;;;;1999.90;999.90;;;22.00;95.70;;;;;;6671211;88;20079;-77
2022/11/01 13:17:14;;;;;;;1999.90;999.90;;;21.40;96.30;;;;;;6665994;88;20226;-78
2022/11/01 13:27:21;;;;;;;1999.90;999.90;;;21.30;96.10;;;;;;6682959;88;20172;-79
2022/11/01 13:37:32;;;;;;;1999.90;999.90;;;21.00;96.10;;;;;;6668800;89;20260;-77
2022/11/01 13:47:55;;;;;;;1999.90;999.90;;;21.40;96.10;;;;;;6667816;88;20217;-78
2022/11/01 14:08:02;;;;;;;1999.90;999.90;;;20.10;97.60;;;;;;6693273;88;20824;-79
2022/11/01 14:18:04;;;;;;;1999.90;999.90;;;20.00;97.60;;;;;;6692321;88;20172;-79
2022/11/01 14:28:16;;;;;;;1999.90;999.90;;;19.80;98.40;;;;;;6692572;88;20363;-80
2022/11/01 14:38:20;;;;;;;1999.90;999.90;;;19.00;99.00;;;;;;6688978;88;20233;-78
2022/11/01 14:48:29;;;;;;;1999.90;999.90;;;18.30;99.60;;;;;;6691553;88;20220;-79
2022/11/01 14:58:30;;;;;;;1999.90;999.90;;;18.00;99.90;;;;;;6688091;88;20202;-79
2022/11/01 15:08:39;;;;;;;1999.90;999.90;;;17.80;99.90;;;;;;6687336;88;20203;-79
2022/11/01 15:18:50;;;;;;;1999.90;999.90;;;17.70;99.90;;;;;;6687521;88;20338;-80
2022/11/01 15:29:00;;;;;;;1999.90;999.90;;;17.40;99.90;;;;;;6674145;89;20310;-79
2022/11/01 15:39:03;;;;;;;1999.90;999.90;;;17.30;99.90;;;;;;6674280;89;20200;-79
2022/11/01 15:49:08;;;;;;;1999.90;999.90;;;16.60;99.90;;;;;;6674637;89;20199;-79
2022/11/01 15:59:20;;;;;;;1999.90;999.90;;;16.30;99.90;;;;;;6673850;88;20590;-80
2022/11/01 16:09:44;;;;;;;1999.90;999.90;;;15.90;99.90;;;;;;6673552;89;20282;-79
2022/11/01 16:19:47;;;;;;;1999.90;999.90;;;15.70;99.90;;;;;;6674217;89;20701;-79
2022/11/01 16:29:50;;;;;;;1999.90;999.90;;;15.50;99.90;;;;;;6677053;89;20193;-81
2022/11/01 16:39:52;;;;;;;1999.90;999.90;;;15.10;99.90;;;;;;6680561;89;20208;-79
2022/11/01 16:49:53;;;;;;;1999.90;999.90;;;15.00;99.90;;;;;;6676983;89;20187;-79
2022/11/01 16:59:54;;;;;;;1999.90;999.90;;;14.80;99.90;;;;;;6680578;89;20254;-80
2022/11/01 17:09:55;;;;;;;1999.90;999.90;;;14.70;99.90;;;;;;6681684;89;20210;-80
2022/11/01 17:19:59;;;;;;;1999.90;999.90;;;14.50;99.90;;;;;;6681214;89;20654;-79
2022/11/01 17:30:00;;;;;;;1999.90;999.90;;;14.40;99.90;;;;;;6676181;88;20625;-79
2022/11/01 17:50:05;;;;;;;1999.90;999.90;;;14.10;99.90;;;;;;6678161;89;20232;-78
2022/11/01 18:00:07;;;;;;;1999.90;999.90;;;14.00;99.90;;;;;;6677887;89;20179;-79
2022/11/01 18:10:18;;;;;;;1999.90;999.90;;;13.80;99.90;;;;;;6673409;89;20339;-79
2022/11/01 18:20:37;;;;;;;1999.90;999.90;;;13.70;99.90;;;;;;6677126;88;20218;-79
2022/11/01 18:30:39;;;;;;;1999.90;999.90;;;13.50;99.90;;;;;;6674088;88;20191;-82
2022/11/01 18:41:00;;;;;;;1999.90;999.90;;;13.50;99.90;;;;;;6673606;88;20207;-80
2022/11/01 18:51:01;;;;;;;1999.90;999.90;;;13.40;99.90;;;;;;6655499;89;20279;-81
2022/11/01 19:01:12;;;;;;;1999.90;999.90;;;13.30;99.90;;;;;;6659250;88;20219;-79
2022/11/01 19:21:18;;;;;;;1999.90;999.90;;;13.20;99.90;;;;;;6698830;89;20258;-79
2022/11/01 19:31:31;;;;;;;1999.90;999.90;;;13.20;99.90;;;;;;6692479;88;20205;-80
2022/11/01 19:41:34;;;;;;;1999.90;999.90;;;12.90;99.90;;;;;;6680188;89;20694;-80
2022/11/01 19:51:34;;;;;;;1999.90;999.90;;;12.80;99.90;;;;;;6626376;89;20291;-80
2022/11/01 20:01:44;;;;;;;1999.90;999.90;;;12.70;99.90;;;;;;6668018;78;20192;-76
2022/11/01 20:11:45;;;;;;;1999.90;999.90;;;12.60;99.90;;;;;;6658790;88;20209;-77
2022/11/01 20:21:45;;;;;;;1999.90;999.90;;;12.60;99.90;;;;;;6658872;89;20258;-76
2022/11/01 20:31:46;;;;;;;1999.90;999.90;;;12.60;99.90;;;;;;6658465;89;20223;-77
2022/11/01 20:41:47;;;;;;;1999.90;999.90;;;12.50;99.90;;;;;;6659527;89;20670;-77
2022/11/01 20:51:48;;;;;;;1999.90;999.90;;;12.40;99.90;;;;;;6659665;88;20301;-78
2022/11/01 21:01:48;;;;;;;1999.90;999.90;;;12.30;99.90;;;;;;6651408;89;20200;-77
2022/11/01 21:11:50;;;;;;;1999.90;999.90;;;12.20;99.90;;;;;;6651896;88;21243;-77
2022/11/01 21:21:54;;;;;;;1999.90;999.90;;;12.20;99.90;;;;;;6691321;88;20199;-78
2022/11/01 21:31:55;;;;;;;1999.90;999.90;;;12.20;99.90;;;;;;6661667;89;20206;-76
2022/11/01 21:42:23;;;;;;;1999.90;999.90;;;12.20;99.90;;;;;;6654521;88;20246;-77
2022/11/01 21:52:23;;;;;;;1999.90;999.90;;;12.20;99.90;;;;;;6654561;89;20666;-77
2022/11/01 22:02:24;;;;;;;1999.90;999.90;;;12.20;99.90;;;;;;6650342;89;20234;-76
2022/11/01 22:12:24;;;;;;;1999.90;999.90;;;12.50;99.90;;;;;;6653067;88;20210;-77
2022/11/01 22:22:25;;;;;;;1999.90;999.90;;;12.80;99.90;;;;;;6652472;89;20192;-77
2022/11/01 22:32:25;;;;;;;1999.90;999.90;;;12.80;99.90;;;;;;6657851;88;20644;-77
2022/11/01 22:42:26;;;;;;;1999.90;999.90;;;12.90;99.90;;;;;;6667644;88;20639;-77
2022/11/01 22:52:40;;;;;;;1999.90;999.90;;;13.10;99.90;;;;;;6655709;89;20249;-77
2022/11/01 23:02:41;;;;;;;1999.90;999.90;;;13.40;99.90;;;;;;6656824;89;20193;-77
2022/11/01 23:23:01;;;;;;;1999.90;999.90;;;13.60;99.90;;;;;;6653443;89;20207;-76
2022/11/01 23:33:02;;;;;;;1999.90;999.90;;;13.60;99.90;;;;;;6682780;88;20206;-76
2022/11/01 23:43:04;;;;;;;1999.90;999.90;;;13.60;99.90;;;;;;6661521;89;20215;-78
2022/11/01 23:53:10;;;;;;;1999.90;999.90;;;13.60;99.90;;;;;;6665449;89;20189;-77
